sensor_id;sensor_type;location;lat;lon;timestamp;temperature;humidity
23010;DHT22;11671;49.990;8.028;2023-01-30T08:23:29;3.80;99.90
23010;DHT22;11671;49.990;8.028;2023-01-30T08:25:56;4.00;99.90
23010;DHT22;11671;49.990;8.028;2023-01-30T08:28:21;4.10;99.90
23010;DHT22;11671;49.990;8.028;2023-01-30T08:30:47;4.30;99.90
23010;DHT22;11671;49.990;8.028;2023-01-30T08:33:14;4.30;99.90
23010;DHT22;11671;49.990;8.028;2023-01-30T08:35:40;4.40;99.90
23010;DHT22;11671;49.990;8.028;2023-01-30T08:38:06;4.40;99.90
23010;DHT22;11671;49.990;8.028;2023-01-30T08:40:34;4.50;99.90
23010;DHT22;11671;49.990;8.028;2023-01-30T08:42:59;4.60;99.90
23010;DHT22;11671;49.990;8.028;2023-01-30T08:45:25;4.80;99.90
23010;DHT22;11671;49.990;8.028;2023-01-30T08:47:50;4.80;99.90
23010;DHT22;11671;49.990;8.028;2023-01-30T08:50:16;4.90;99.90
23010;DHT22;11671;49.990;8.028;2023-01-30T08:52:42;5.00;99.90
23010;DHT22;11671;49.990;8.028;2023-01-30T08:55:07;5.00;99.90
23010;DHT22;11671;49.990;8.028;2023-01-30T08:57:34;5.10;99.90
23010;DHT22;11671;49.990;8.028;2023-01-30T09:00:00;5.10;99.90
23010;DHT22;11671;49.990;8.028;2023-01-30T09:02:25;5.20;99.90
23010;DHT22;11671;49.990;8.028;2023-01-30T09:04:51;5.20;99.90
23010;DHT22;11671;49.990;8.028;2023-01-30T09:07:16;5.10;99.90
23010;DHT22;11671;49.990;8.028;2023-01-30T09:09:42;5.00;99.90
23010;DHT22;11671;49.990;8.028;2023-01-30T09:12:07;5.10;99.90
23010;DHT22;11671;49.990;8.028;2023-01-30T09:14:33;5.20;99.90
23010;DHT22;11671;49.990;8.028;2023-01-30T09:16:58;5.40;99.90
23010;DHT22;11671;49.990;8.028;2023-01-30T09:19:26;5.40;99.90
23010;DHT22;11671;49.990;8.028;2023-01-30T09:21:53;5.30;99.90
23010;DHT22;11671;49.990;8.028;2023-01-30T09:24:19;5.40;99.90
23010;DHT22;11671;49.990;8.028;2023-01-30T09:26:46;5.60;99.90
23010;DHT22;11671;49.990;8.028;2023-01-30T09:29:12;5.80;99.90
23010;DHT22;11671;49.990;8.028;2023-01-30T09:31:39;5.80;99.90
23010;DHT22;11671;49.990;8.028;2023-01-30T09:34:04;5.80;99.90
23010;DHT22;11671;49.990;8.028;2023-01-30T09:36:30;5.90;99.90
23010;DHT22;11671;49.990;8.028;2023-01-30T09:38:56;5.90;99.90
23010;DHT22;11671;49.990;8.028;2023-01-30T09:41:47;5.90;99.90
23010;DHT22;11671;49.990;8.028;2023-01-30T09:44:56;6.00;99.90
23010;DHT22;11671;49.990;8.028;2023-01-30T09:53:28;6.60;99.90
23010;DHT22;11671;49.990;8.028;2023-01-30T09:55:57;6.50;99.90
23010;DHT22;11671;49.990;8.028;2023-01-30T09:58:24;6.50;99.90
23010;DHT22;11671;49.990;8.028;2023-01-30T10:00:55;6.40;99.90
23010;DHT22;11671;49.990;8.028;2023-01-30T10:03:28;6.40;99.90
23010;DHT22;11671;49.990;8.028;2023-01-30T10:06:04;6.50;99.90
23010;DHT22;11671;49.990;8.028;2023-01-30T10:09:07;6.40;99.90
23010;DHT22;11671;49.990;8.028;2023-01-30T10:11:45;6.50;99.90
23010;DHT22;11671;49.990;8.028;2023-01-30T10:27:46;7.30;99.90
23010;DHT22;11671;49.990;8.028;2023-01-30T10:30:15;7.10;99.90
23010;DHT22;11671;49.990;8.028;2023-01-30T10:32:45;7.10;99.90
23010;DHT22;11671;49.990;8.028;2023-01-30T10:35:19;7.10;99.90
23010;DHT22;11671;49.990;8.028;2023-01-30T10:38:06;7.10;99.90
23010;DHT22;11671;49.990;8.028;2023-01-30T10:40:59;7.00;99.90
23010;DHT22;11671;49.990;8.028;2023-01-30T10:43:52;7.00;99.90
23010;DHT22;11671;49.990;8.028;2023-01-30T10:46:36;7.10;99.90
23010;DHT22;11671;49.990;8.028;2023-01-30T10:55:04;7.30;99.90
23010;DHT22;11671;49.990;8.028;2023-01-30T11:00:27;7.60;99.90
23010;DHT22;11671;49.990;8.028;2023-01-30T11:03:07;7.50;99.90
23010;DHT22;11671;49.990;8.028;2023-01-30T11:05:48;7.50;99.90
23010;DHT22;11671;49.990;8.028;2023-01-30T11:10:48;7.70;99.90
23010;DHT22;11671;49.990;8.028;2023-01-30T11:13:20;7.70;99.90
23010;DHT22;11671;49.990;8.028;2023-01-30T11:15:49;7.80;99.90
23010;DHT22;11671;49.990;8.028;2023-01-30T11:18:17;7.90;99.90
23010;DHT22;11671;49.990;8.028;2023-01-30T11:20:50;7.90;99.90
23010;DHT22;11671;49.990;8.028;2023-01-30T11:23:40;7.90;99.90
23010;DHT22;11671;49.990;8.028;2023-01-30T11:26:06;8.00;99.90
23010;DHT22;11671;49.990;8.028;2023-01-30T11:28:40;8.00;99.90
23010;DHT22;11671;49.990;8.028;2023-01-30T11:31:19;8.00;99.90
23010;DHT22;11671;49.990;8.028;2023-01-30T11:34:04;7.90;99.90
23010;DHT22;11671;49.990;8.028;2023-01-30T11:36:32;7.80;99.90
23010;DHT22;11671;49.990;8.028;2023-01-30T11:39:21;7.60;99.90
23010;DHT22;11671;49.990;8.028;2023-01-30T11:44:27;7.40;99.90
23010;DHT22;11671;49.990;8.028;2023-01-30T11:46:53;7.30;99.90
23010;DHT22;11671;49.990;8.028;2023-01-30T11:49:21;7.30;99.90
23010;DHT22;11671;49.990;8.028;2023-01-30T11:51:52;7.30;99.90
23010;DHT22;11671;49.990;8.028;2023-01-30T11:56:54;7.30;99.90
23010;DHT22;11671;49.990;8.028;2023-01-30T11:59:35;7.40;99.90
23010;DHT22;11671;49.990;8.028;2023-01-30T12:04:47;7.50;99.90
23010;DHT22;11671;49.990;8.028;2023-01-30T12:09:40;7.70;99.90
23010;DHT22;11671;49.990;8.028;2023-01-30T12:14:51;7.80;99.90
23010;DHT22;11671;49.990;8.028;2023-01-30T12:17:38;7.70;99.90
23010;DHT22;11671;49.990;8.028;2023-01-30T12:25:47;7.80;99.90
23010;DHT22;11671;49.990;8.028;2023-01-30T12:33:44;8.00;99.90
23010;DHT22;11671;49.990;8.028;2023-01-30T12:41:17;8.10;99.90
23010;DHT22;11671;49.990;8.028;2023-01-30T12:44:15;8.10;99.90
23010;DHT22;11671;49.990;8.028;2023-01-30T12:47:13;8.00;99.90
23010;DHT22;11671;49.990;8.028;2023-01-30T13:01:36;9.00;99.90
23010;DHT22;11671;49.990;8.028;2023-01-30T13:10:20;9.60;99.90
23010;DHT22;11671;49.990;8.028;2023-01-30T13:23:52;8.60;99.90
23010;DHT22;11671;49.990;8.028;2023-01-30T13:26:26;8.60;99.90
23010;DHT22;11671;49.990;8.028;2023-01-30T13:28:57;8.60;99.90
23010;DHT22;11671;49.990;8.028;2023-01-30T13:31:25;8.60;99.90
23010;DHT22;11671;49.990;8.028;2023-01-30T13:34:05;8.50;99.90
23010;DHT22;11671;49.990;8.028;2023-01-30T13:36:48;8.50;99.90
23010;DHT22;11671;49.990;8.028;2023-01-30T13:45:06;8.50;99.90
23010;DHT22;11671;49.990;8.028;2023-01-30T13:53:24;8.80;99.90
23010;DHT22;11671;49.990;8.028;2023-01-30T13:56:21;8.90;99.90
23010;DHT22;11671;49.990;8.028;2023-01-30T13:58:56;8.90;99.90
23010;DHT22;11671;49.990;8.028;2023-01-30T14:01:23;8.90;99.90
23010;DHT22;11671;49.990;8.028;2023-01-30T14:07:29;8.80;99.90
23010;DHT22;11671;49.990;8.028;2023-01-30T14:12:36;8.60;99.90
23010;DHT22;11671;49.990;8.028;2023-01-30T14:18:00;8.60;99.90
23010;DHT22;11671;49.990;8.028;2023-01-30T14:20:30;8.70;99.90
23010;DHT22;11671;49.990;8.028;2023-01-30T14:23:01;8.70;99.90
23010;DHT22;11671;49.990;8.028;2023-01-30T14:27:55;8.70;99.90
23010;DHT22;11671;49.990;8.028;2023-01-30T14:30:50;8.80;99.90
23010;DHT22;11671;49.990;8.028;2023-01-30T14:38:31;9.00;99.90
23010;DHT22;11671;49.990;8.028;2023-01-30T15:15:28;7.90;99.90
23010;DHT22;11671;49.990;8.028;2023-01-30T15:31:25;8.00;99.90
23010;DHT22;11671;49.990;8.028;2023-01-30T15:33:52;8.00;99.90
23010;DHT22;11671;49.990;8.028;2023-01-30T15:36:22;8.00;99.90
23010;DHT22;11671;49.990;8.028;2023-01-30T15:39:41;8.00;99.90
23010;DHT22;11671;49.990;8.028;2023-01-30T15:42:05;7.90;99.90
23010;DHT22;11671;49.990;8.028;2023-01-30T15:44:52;7.90;99.90
23010;DHT22;11671;49.990;8.028;2023-01-30T15:47:36;7.80;99.90
23010;DHT22;11671;49.990;8.028;2023-01-30T15:50:10;7.70;99.90
23010;DHT22;11671;49.990;8.028;2023-01-30T15:52:45;7.60;99.90
23010;DHT22;11671;49.990;8.028;2023-01-30T15:55:23;7.60;99.90
23010;DHT22;11671;49.990;8.028;2023-01-30T15:57:56;7.50;99.90
23010;DHT22;11671;49.990;8.028;2023-01-30T16:00:28;7.50;99.90
23010;DHT22;11671;49.990;8.028;2023-01-30T16:02:56;7.40;99.90
23010;DHT22;11671;49.990;8.028;2023-01-30T16:05:25;7.50;99.90
23010;DHT22;11671;49.990;8.028;2023-01-30T16:07:53;7.50;99.90
23010;DHT22;11671;49.990;8.028;2023-01-30T16:10:25;7.50;99.90
23010;DHT22;11671;49.990;8.028;2023-01-30T16:12:53;7.50;99.90
23010;DHT22;11671;49.990;8.028;2023-01-30T16:15:45;7.40;99.90
23010;DHT22;11671;49.990;8.028;2023-01-30T16:18:36;7.40;99.90
23010;DHT22;11671;49.990;8.028;2023-01-30T16:21:14;7.30;99.90
23010;DHT22;11671;49.990;8.028;2023-01-30T16:23:50;7.30;99.90
23010;DHT22;11671;49.990;8.028;2023-01-30T16:26:16;7.30;99.90
23010;DHT22;11671;49.990;8.028;2023-01-30T16:28:43;7.30;99.90
23010;DHT22;11671;49.990;8.028;2023-01-30T16:31:10;7.30;99.90
23010;DHT22;11671;49.990;8.028;2023-01-30T16:33:36;7.30;99.90
23010;DHT22;11671;49.990;8.028;2023-01-30T16:38:45;7.20;99.90
23010;DHT22;11671;49.990;8.028;2023-01-30T16:41:34;7.20;99.90
23010;DHT22;11671;49.990;8.028;2023-01-30T16:44:21;7.20;99.90
23010;DHT22;11671;49.990;8.028;2023-01-30T16:47:43;7.20;99.90
23010;DHT22;11671;49.990;8.028;2023-01-30T16:49:50;7.20;99.90
23010;DHT22;11671;49.990;8.028;2023-01-30T16:52:37;7.10;99.90
23010;DHT22;11671;49.990;8.028;2023-01-30T16:55:21;7.10;99.90
23010;DHT22;11671;49.990;8.028;2023-01-30T16:57:55;7.00;99.90
23010;DHT22;11671;49.990;8.028;2023-01-30T17:03:48;6.90;99.90
23010;DHT22;11671;49.990;8.028;2023-01-30T17:05:43;6.90;99.90
23010;DHT22;11671;49.990;8.028;2023-01-30T17:08:37;7.00;99.90
23010;DHT22;11671;49.990;8.028;2023-01-30T17:11:09;7.00;99.90
23010;DHT22;11671;49.990;8.028;2023-01-30T17:18:46;7.10;99.90
23010;DHT22;11671;49.990;8.028;2023-01-30T17:21:13;7.20;99.90
23010;DHT22;11671;49.990;8.028;2023-01-30T17:23:42;7.20;99.90
23010;DHT22;11671;49.990;8.028;2023-01-30T17:26:10;7.20;99.90
23010;DHT22;11671;49.990;8.028;2023-01-30T17:28:38;7.30;99.90
23010;DHT22;11671;49.990;8.028;2023-01-30T17:31:04;7.30;99.90
23010;DHT22;11671;49.990;8.028;2023-01-30T17:33:30;7.30;99.90
23010;DHT22;11671;49.990;8.028;2023-01-30T17:35:57;7.30;99.90
23010;DHT22;11671;49.990;8.028;2023-01-30T17:38:24;7.20;99.90
23010;DHT22;11671;49.990;8.028;2023-01-30T17:40:49;7.10;99.90
23010;DHT22;11671;49.990;8.028;2023-01-30T17:43:15;7.10;99.90
23010;DHT22;11671;49.990;8.028;2023-01-30T17:45:40;7.20;99.90
23010;DHT22;11671;49.990;8.028;2023-01-30T17:48:06;7.20;99.90
23010;DHT22;11671;49.990;8.028;2023-01-30T17:50:32;7.20;99.90
23010;DHT22;11671;49.990;8.028;2023-01-30T17:52:58;7.20;99.90
23010;DHT22;11671;49.990;8.028;2023-01-30T17:55:23;7.20;99.90
23010;DHT22;11671;49.990;8.028;2023-01-30T17:57:49;7.20;99.90
23010;DHT22;11671;49.990;8.028;2023-01-30T18:00:18;7.20;99.90
23010;DHT22;11671;49.990;8.028;2023-01-30T18:02:44;7.20;99.90
23010;DHT22;11671;49.990;8.028;2023-01-30T18:05:10;7.20;99.90
23010;DHT22;11671;49.990;8.028;2023-01-30T18:07:36;7.20;99.90
23010;DHT22;11671;49.990;8.028;2023-01-30T18:10:03;7.20;99.90
23010;DHT22;11671;49.990;8.028;2023-01-30T18:12:28;7.30;99.90
23010;DHT22;11671;49.990;8.028;2023-01-30T18:14:54;7.30;99.90
23010;DHT22;11671;49.990;8.028;2023-01-30T18:17:20;7.30;99.90
23010;DHT22;11671;49.990;8.028;2023-01-30T18:19:45;7.40;99.90
23010;DHT22;11671;49.990;8.028;2023-01-30T18:22:11;7.40;99.90
23010;DHT22;11671;49.990;8.028;2023-01-30T18:24:36;7.40;99.90
23010;DHT22;11671;49.990;8.028;2023-01-30T18:27:02;7.40;99.90
23010;DHT22;11671;49.990;8.028;2023-01-30T18:29:27;7.40;99.90
23010;DHT22;11671;49.990;8.028;2023-01-30T18:31:53;7.40;99.90
23010;DHT22;11671;49.990;8.028;2023-01-30T18:34:18;7.40;99.90
23010;DHT22;11671;49.990;8.028;2023-01-30T18:36:44;7.40;99.90
23010;DHT22;11671;49.990;8.028;2023-01-30T18:39:10;7.50;99.90
23010;DHT22;11671;49.990;8.028;2023-01-30T18:41:36;7.50;99.90
23010;DHT22;11671;49.990;8.028;2023-01-30T18:44:02;7.50;99.90
23010;DHT22;11671;49.990;8.028;2023-01-30T18:46:29;7.50;99.90
23010;DHT22;11671;49.990;8.028;2023-01-30T18:48:55;7.50;99.90
23010;DHT22;11671;49.990;8.028;2023-01-30T18:51:27;7.60;99.90
23010;DHT22;11671;49.990;8.028;2023-01-30T18:53:53;7.60;99.90
23010;DHT22;11671;49.990;8.028;2023-01-30T18:56:27;7.60;99.90
23010;DHT22;11671;49.990;8.028;2023-01-30T18:58:54;7.60;99.90
23010;DHT22;11671;49.990;8.028;2023-01-30T19:01:26;7.60;99.90
23010;DHT22;11671;49.990;8.028;2023-01-30T19:03:56;7.60;99.90
23010;DHT22;11671;49.990;8.028;2023-01-30T19:06:22;7.60;99.90
23010;DHT22;11671;49.990;8.028;2023-01-30T19:08:47;7.50;99.90
23010;DHT22;11671;49.990;8.028;2023-01-30T19:11:15;7.50;99.90
23010;DHT22;11671;49.990;8.028;2023-01-30T19:13:59;7.50;99.90
23010;DHT22;11671;49.990;8.028;2023-01-30T19:16:27;7.50;99.90
23010;DHT22;11671;49.990;8.028;2023-01-30T19:18:54;7.60;99.90
23010;DHT22;11671;49.990;8.028;2023-01-30T19:21:20;7.60;99.90
23010;DHT22;11671;49.990;8.028;2023-01-30T19:23:46;7.60;99.90
23010;DHT22;11671;49.990;8.028;2023-01-30T19:26:13;7.60;99.90
23010;DHT22;11671;49.990;8.028;2023-01-30T19:28:40;7.60;99.90
23010;DHT22;11671;49.990;8.028;2023-01-30T19:31:11;7.60;99.90
23010;DHT22;11671;49.990;8.028;2023-01-30T19:33:45;7.60;99.90
23010;DHT22;11671;49.990;8.028;2023-01-30T19:36:13;7.70;99.90
23010;DHT22;11671;49.990;8.028;2023-01-30T19:38:39;7.70;99.90
23010;DHT22;11671;49.990;8.028;2023-01-30T19:41:17;7.70;99.90
23010;DHT22;11671;49.990;8.028;2023-01-30T19:43:43;7.70;99.90
23010;DHT22;11671;49.990;8.028;2023-01-30T19:46:09;7.70;99.90
23010;DHT22;11671;49.990;8.028;2023-01-30T19:48:39;7.60;99.90
23010;DHT22;11671;49.990;8.028;2023-01-30T19:51:13;7.60;99.90
23010;DHT22;11671;49.990;8.028;2023-01-30T19:53:40;7.60;99.90
23010;DHT22;11671;49.990;8.028;2023-01-30T19:56:08;7.70;99.90
23010;DHT22;11671;49.990;8.028;2023-01-30T19:58:35;7.70;99.90
23010;DHT22;11671;49.990;8.028;2023-01-30T20:01:10;7.80;99.90
23010;DHT22;11671;49.990;8.028;2023-01-30T20:03:36;7.80;99.90
23010;DHT22;11671;49.990;8.028;2023-01-30T20:06:22;7.80;99.90
23010;DHT22;11671;49.990;8.028;2023-01-30T20:08:53;7.80;99.90
23010;DHT22;11671;49.990;8.028;2023-01-30T20:11:20;7.80;99.90
23010;DHT22;11671;49.990;8.028;2023-01-30T20:13:47;7.70;99.90
23010;DHT22;11671;49.990;8.028;2023-01-30T20:16:15;7.60;99.90
23010;DHT22;11671;49.990;8.028;2023-01-30T20:18:43;7.60;99.90
23010;DHT22;11671;49.990;8.028;2023-01-30T20:21:13;7.60;99.90
23010;DHT22;11671;49.990;8.028;2023-01-30T20:23:38;7.60;99.90
23010;DHT22;11671;49.990;8.028;2023-01-30T20:26:11;7.60;99.90
23010;DHT22;11671;49.990;8.028;2023-01-30T20:28:37;7.60;99.90
23010;DHT22;11671;49.990;8.028;2023-01-30T20:31:10;7.60;99.90
23010;DHT22;11671;49.990;8.028;2023-01-30T20:33:37;7.60;99.90
23010;DHT22;11671;49.990;8.028;2023-01-30T20:36:03;7.70;99.90
23010;DHT22;11671;49.990;8.028;2023-01-30T20:38:34;7.70;99.90
23010;DHT22;11671;49.990;8.028;2023-01-30T20:41:12;7.70;99.90
23010;DHT22;11671;49.990;8.028;2023-01-30T20:43:41;7.60;99.90
23010;DHT22;11671;49.990;8.028;2023-01-30T20:46:14;7.50;99.90
23010;DHT22;11671;49.990;8.028;2023-01-30T20:48:41;7.50;99.90
23010;DHT22;11671;49.990;8.028;2023-01-30T20:51:12;7.50;99.90
23010;DHT22;11671;49.990;8.028;2023-01-30T20:53:39;7.50;99.90
23010;DHT22;11671;49.990;8.028;2023-01-30T20:56:09;7.50;99.90
23010;DHT22;11671;49.990;8.028;2023-01-30T20:58:35;7.50;99.90
23010;DHT22;11671;49.990;8.028;2023-01-30T21:01:11;7.40;99.90
23010;DHT22;11671;49.990;8.028;2023-01-30T21:03:37;7.40;99.90
23010;DHT22;11671;49.990;8.028;2023-01-30T21:06:03;7.40;99.90
23010;DHT22;11671;49.990;8.028;2023-01-30T21:08:29;7.30;99.90
23010;DHT22;11671;49.990;8.028;2023-01-30T21:11:01;7.40;99.90
23010;DHT22;11671;49.990;8.028;2023-01-30T21:13:27;7.40;99.90
23010;DHT22;11671;49.990;8.028;2023-01-30T21:16:02;7.40;99.90
23010;DHT22;11671;49.990;8.028;2023-01-30T21:18:30;7.40;99.90
23010;DHT22;11671;49.990;8.028;2023-01-30T21:20:56;7.20;99.90
23010;DHT22;11671;49.990;8.028;2023-01-30T21:23:21;7.10;99.90
23010;DHT22;11671;49.990;8.028;2023-01-30T21:25:47;7.00;99.90
23010;DHT22;11671;49.990;8.028;2023-01-30T21:28:12;6.90;99.90
23010;DHT22;11671;49.990;8.028;2023-01-30T21:30:38;6.90;99.90
23010;DHT22;11671;49.990;8.028;2023-01-30T21:33:04;7.00;99.90
23010;DHT22;11671;49.990;8.028;2023-01-30T21:35:30;7.00;99.90
23010;DHT22;11671;49.990;8.028;2023-01-30T21:37:56;7.10;99.90
23010;DHT22;11671;49.990;8.028;2023-01-30T21:40:40;7.10;99.90
23010;DHT22;11671;49.990;8.028;2023-01-30T21:43:24;7.00;99.90
23010;DHT22;11671;49.990;8.028;2023-01-30T21:45:55;7.00;99.90
23010;DHT22;11671;49.990;8.028;2023-01-30T21:48:21;7.00;99.90
23010;DHT22;11671;49.990;8.028;2023-01-30T21:50:46;7.00;99.90
23010;DHT22;11671;49.990;8.028;2023-01-30T21:53:12;7.10;99.90
23010;DHT22;11671;49.990;8.028;2023-01-30T21:55:37;7.10;99.90
23010;DHT22;11671;49.990;8.028;2023-01-30T21:58:03;7.20;99.90
23010;DHT22;11671;49.990;8.028;2023-01-30T22:00:28;7.20;99.90
23010;DHT22;11671;49.990;8.028;2023-01-30T22:02:54;7.20;99.90
23010;DHT22;11671;49.990;8.028;2023-01-30T22:05:19;7.20;99.90
23010;DHT22;11671;49.990;8.028;2023-01-30T22:07:45;7.20;99.90
23010;DHT22;11671;49.990;8.028;2023-01-30T22:10:10;7.10;99.90
23010;DHT22;11671;49.990;8.028;2023-01-30T22:12:36;7.10;99.90
23010;DHT22;11671;49.990;8.028;2023-01-30T22:15:05;7.00;99.90
23010;DHT22;11671;49.990;8.028;2023-01-30T22:17:30;7.00;99.90
23010;DHT22;11671;49.990;8.028;2023-01-30T22:19:56;7.00;99.90
23010;DHT22;11671;49.990;8.028;2023-01-30T22:22:23;7.00;99.90
23010;DHT22;11671;49.990;8.028;2023-01-30T22:24:49;7.00;99.90
23010;DHT22;11671;49.990;8.028;2023-01-30T22:27:14;6.90;99.90
23010;DHT22;11671;49.990;8.028;2023-01-30T22:29:41;6.90;99.90
23010;DHT22;11671;49.990;8.028;2023-01-30T22:32:07;6.90;99.90
23010;DHT22;11671;49.990;8.028;2023-01-30T22:34:33;6.80;99.90
23010;DHT22;11671;49.990;8.028;2023-01-30T22:36:58;6.80;99.90
23010;DHT22;11671;49.990;8.028;2023-01-30T22:39:24;6.80;99.90
23010;DHT22;11671;49.990;8.028;2023-01-30T22:41:49;6.80;99.90
23010;DHT22;11671;49.990;8.028;2023-01-30T22:44:15;6.70;99.90
23010;DHT22;11671;49.990;8.028;2023-01-30T22:46:40;6.60;99.90
23010;DHT22;11671;49.990;8.028;2023-01-30T22:49:07;6.50;99.90
23010;DHT22;11671;49.990;8.028;2023-01-30T22:51:36;6.40;99.90
23010;DHT22;11671;49.990;8.028;2023-01-30T22:54:04;6.40;99.90
23010;DHT22;11671;49.990;8.028;2023-01-30T22:56:39;6.40;99.90
23010;DHT22;11671;49.990;8.028;2023-01-30T22:59:05;6.30;99.90
23010;DHT22;11671;49.990;8.028;2023-01-30T23:01:37;6.20;99.90
23010;DHT22;11671;49.990;8.028;2023-01-30T23:04:09;6.10;99.90
23010;DHT22;11671;49.990;8.028;2023-01-30T23:06:36;6.10;99.90
23010;DHT22;11671;49.990;8.028;2023-01-30T23:09:02;6.00;99.90
23010;DHT22;11671;49.990;8.028;2023-01-30T23:11:44;6.00;99.90
23010;DHT22;11671;49.990;8.028;2023-01-30T23:14:30;6.00;99.90
23010;DHT22;11671;49.990;8.028;2023-01-30T23:16:55;6.00;99.90
23010;DHT22;11671;49.990;8.028;2023-01-30T23:19:21;5.90;99.90
23010;DHT22;11671;49.990;8.028;2023-01-30T23:21:46;5.90;99.90
23010;DHT22;11671;49.990;8.028;2023-01-30T23:24:17;5.80;99.90
23010;DHT22;11671;49.990;8.028;2023-01-30T23:26:45;5.80;99.90
23010;DHT22;11671;49.990;8.028;2023-01-30T23:29:14;5.80;99.90
23010;DHT22;11671;49.990;8.028;2023-01-30T23:31:41;5.80;99.90
23010;DHT22;11671;49.990;8.028;2023-01-30T23:34:12;5.90;99.90
23010;DHT22;11671;49.990;8.028;2023-01-30T23:36:38;5.90;99.90
23010;DHT22;11671;49.990;8.028;2023-01-30T23:39:03;5.90;99.90
23010;DHT22;11671;49.990;8.028;2023-01-30T23:41:31;5.90;99.90
23010;DHT22;11671;49.990;8.028;2023-01-30T23:43:58;5.80;99.90
23010;DHT22;11671;49.990;8.028;2023-01-30T23:46:32;5.90;99.90
23010;DHT22;11671;49.990;8.028;2023-01-30T23:49:02;5.80;99.90
23010;DHT22;11671;49.990;8.028;2023-01-30T23:51:29;5.70;99.90
23010;DHT22;11671;49.990;8.028;2023-01-30T23:53:56;5.70;99.90
23010;DHT22;11671;49.990;8.028;2023-01-30T23:56:25;5.80;99.90
23010;DHT22;11671;49.990;8.028;2023-01-30T23:58:51;5.80;99.90
